sensor_id;sensor_type;location;lat;lon;timestamp;pressure;altitude;pressure_sealevel;temperature;humidity
42415;BME280;28058;46.344;17.786;2023-08-08T00:00:29;63262.38;;;-144.97;100.00
42415;BME280;28058;46.344;17.786;2023-08-08T00:02:55;63262.38;;;-144.97;100.00
42415;BME280;28058;46.344;17.786;2023-08-08T00:05:22;63262.38;;;-144.97;100.00
42415;BME280;28058;46.344;17.786;2023-08-08T00:07:49;63262.38;;;-144.97;100.00
42415;BME280;28058;46.344;17.786;2023-08-08T00:10:16;63262.38;;;-144.97;100.00
42415;BME280;28058;46.344;17.786;2023-08-08T00:12:43;63262.38;;;-144.97;100.00
42415;BME280;28058;46.344;17.786;2023-08-08T00:15:10;63262.38;;;-144.97;100.00
42415;BME280;28058;46.344;17.786;2023-08-08T00:17:37;63262.38;;;-144.97;100.00
42415;BME280;28058;46.344;17.786;2023-08-08T00:20:04;63262.38;;;-144.97;100.00
42415;BME280;28058;46.344;17.786;2023-08-08T00:22:31;63262.38;;;-144.97;100.00
42415;BME280;28058;46.344;17.786;2023-08-08T00:27:27;63262.38;;;-144.97;100.00
42415;BME280;28058;46.344;17.786;2023-08-08T00:32:34;63262.38;;;-144.97;100.00
42415;BME280;28058;46.344;17.786;2023-08-08T00:35:05;63262.38;;;-144.97;100.00
42415;BME280;28058;46.344;17.786;2023-08-08T00:37:32;63262.38;;;-144.97;100.00
42415;BME280;28058;46.344;17.786;2023-08-08T00:39:59;63262.38;;;-144.97;100.00
42415;BME280;28058;46.344;17.786;2023-08-08T00:45:19;63262.38;;;-144.97;100.00
42415;BME280;28058;46.344;17.786;2023-08-08T00:50:25;63262.38;;;-144.97;100.00
42415;BME280;28058;46.344;17.786;2023-08-08T00:52:52;63262.38;;;-144.97;100.00
42415;BME280;28058;46.344;17.786;2023-08-08T00:55:19;63262.38;;;-144.97;100.00
42415;BME280;28058;46.344;17.786;2023-08-08T00:57:46;63262.38;;;-144.97;100.00
42415;BME280;28058;46.344;17.786;2023-08-08T01:00:13;63262.38;;;-144.97;100.00
42415;BME280;28058;46.344;17.786;2023-08-08T01:02:39;63262.38;;;-144.97;100.00
42415;BME280;28058;46.344;17.786;2023-08-08T01:05:06;63262.38;;;-144.97;100.00
42415;BME280;28058;46.344;17.786;2023-08-08T01:07:47;63262.38;;;-144.97;100.00
42415;BME280;28058;46.344;17.786;2023-08-08T01:10:24;63262.38;;;-144.97;100.00
42415;BME280;28058;46.344;17.786;2023-08-08T01:12:53;63262.38;;;-144.97;100.00
42415;BME280;28058;46.344;17.786;2023-08-08T01:15:21;63262.38;;;-144.97;100.00
42415;BME280;28058;46.344;17.786;2023-08-08T01:17:48;63262.38;;;-144.97;100.00
42415;BME280;28058;46.344;17.786;2023-08-08T01:20:17;63262.38;;;-144.97;100.00
42415;BME280;28058;46.344;17.786;2023-08-08T01:25:30;63262.38;;;-144.97;100.00
42415;BME280;28058;46.344;17.786;2023-08-08T01:27:57;63262.38;;;-144.97;100.00
42415;BME280;28058;46.344;17.786;2023-08-08T01:30:24;63262.38;;;-144.97;100.00
42415;BME280;28058;46.344;17.786;2023-08-08T01:32:51;63262.38;;;-144.97;100.00
42415;BME280;28058;46.344;17.786;2023-08-08T01:35:17;63262.38;;;-144.97;100.00
42415;BME280;28058;46.344;17.786;2023-08-08T01:37:48;63262.38;;;-144.97;100.00
42415;BME280;28058;46.344;17.786;2023-08-08T01:40:16;63262.38;;;-144.97;100.00
42415;BME280;28058;46.344;17.786;2023-08-08T01:42:43;63262.38;;;-144.97;100.00
42415;BME280;28058;46.344;17.786;2023-08-08T01:45:11;63262.38;;;-144.97;100.00
42415;BME280;28058;46.344;17.786;2023-08-08T01:47:39;63262.38;;;-144.97;100.00
42415;BME280;28058;46.344;17.786;2023-08-08T01:50:06;63262.38;;;-144.97;100.00
42415;BME280;28058;46.344;17.786;2023-08-08T01:52:33;63262.38;;;-144.97;100.00
42415;BME280;28058;46.344;17.786;2023-08-08T01:55:00;63262.38;;;-144.97;100.00
42415;BME280;28058;46.344;17.786;2023-08-08T01:57:27;63262.38;;;-144.97;100.00
42415;BME280;28058;46.344;17.786;2023-08-08T01:59:53;63262.38;;;-144.97;100.00
42415;BME280;28058;46.344;17.786;2023-08-08T02:02:20;63262.38;;;-144.97;100.00
42415;BME280;28058;46.344;17.786;2023-08-08T02:04:47;63262.38;;;-144.97;100.00
42415;BME280;28058;46.344;17.786;2023-08-08T02:07:13;63262.38;;;-144.97;100.00
42415;BME280;28058;46.344;17.786;2023-08-08T02:09:40;63262.38;;;-144.97;100.00
42415;BME280;28058;46.344;17.786;2023-08-08T02:12:07;63262.38;;;-144.97;100.00
42415;BME280;28058;46.344;17.786;2023-08-08T02:14:34;63262.38;;;-144.97;100.00
42415;BME280;28058;46.344;17.786;2023-08-08T02:17:01;63262.38;;;-144.97;100.00
42415;BME280;28058;46.344;17.786;2023-08-08T02:19:28;63262.38;;;-144.97;100.00
42415;BME280;28058;46.344;17.786;2023-08-08T02:21:56;63262.38;;;-144.97;100.00
42415;BME280;28058;46.344;17.786;2023-08-08T02:24:23;63262.38;;;-144.97;100.00
42415;BME280;28058;46.344;17.786;2023-08-08T02:26:50;63262.38;;;-144.97;100.00
42415;BME280;28058;46.344;17.786;2023-08-08T02:29:16;63262.38;;;-144.97;100.00
42415;BME280;28058;46.344;17.786;2023-08-08T02:31:43;63262.38;;;-144.97;100.00
42415;BME280;28058;46.344;17.786;2023-08-08T02:34:10;63262.38;;;-144.97;100.00
42415;BME280;28058;46.344;17.786;2023-08-08T02:36:37;63262.38;;;-144.97;100.00
42415;BME280;28058;46.344;17.786;2023-08-08T02:39:04;63262.38;;;-144.97;100.00
42415;BME280;28058;46.344;17.786;2023-08-08T02:41:30;63262.38;;;-144.97;100.00
42415;BME280;28058;46.344;17.786;2023-08-08T02:43:57;63262.38;;;-144.97;100.00
42415;BME280;28058;46.344;17.786;2023-08-08T02:46:24;63262.38;;;-144.97;100.00
42415;BME280;28058;46.344;17.786;2023-08-08T02:48:51;63262.38;;;-144.97;100.00
42415;BME280;28058;46.344;17.786;2023-08-08T02:51:18;63262.38;;;-144.97;100.00
42415;BME280;28058;46.344;17.786;2023-08-08T02:53:44;63262.38;;;-144.97;100.00
42415;BME280;28058;46.344;17.786;2023-08-08T02:56:11;63262.38;;;-144.97;100.00
42415;BME280;28058;46.344;17.786;2023-08-08T02:58:38;63262.38;;;-144.97;100.00
42415;BME280;28058;46.344;17.786;2023-08-08T03:01:05;63262.38;;;-144.97;100.00
42415;BME280;28058;46.344;17.786;2023-08-08T03:03:32;63262.38;;;-144.97;100.00
42415;BME280;28058;46.344;17.786;2023-08-08T03:06:00;63262.38;;;-144.97;100.00
42415;BME280;28058;46.344;17.786;2023-08-08T03:08:27;63262.38;;;-144.97;100.00
42415;BME280;28058;46.344;17.786;2023-08-08T03:10:54;63262.38;;;-144.97;100.00
42415;BME280;28058;46.344;17.786;2023-08-08T03:13:20;63262.38;;;-144.97;100.00
42415;BME280;28058;46.344;17.786;2023-08-08T03:15:49;63262.38;;;-144.97;100.00
42415;BME280;28058;46.344;17.786;2023-08-08T03:18:15;63262.38;;;-144.97;100.00
42415;BME280;28058;46.344;17.786;2023-08-08T03:20:42;63262.38;;;-144.97;100.00
42415;BME280;28058;46.344;17.786;2023-08-08T03:23:09;63262.38;;;-144.97;100.00
42415;BME280;28058;46.344;17.786;2023-08-08T03:25:36;63262.38;;;-144.97;100.00
42415;BME280;28058;46.344;17.786;2023-08-08T03:28:03;63262.38;;;-144.97;100.00
42415;BME280;28058;46.344;17.786;2023-08-08T03:30:30;63262.38;;;-144.97;100.00
42415;BME280;28058;46.344;17.786;2023-08-08T03:32:57;63262.38;;;-144.97;100.00
42415;BME280;28058;46.344;17.786;2023-08-08T03:35:24;63262.38;;;-144.97;100.00
42415;BME280;28058;46.344;17.786;2023-08-08T03:37:51;63262.38;;;-144.97;100.00
42415;BME280;28058;46.344;17.786;2023-08-08T03:40:18;63262.38;;;-144.97;100.00
42415;BME280;28058;46.344;17.786;2023-08-08T03:42:44;63262.38;;;-144.97;100.00
42415;BME280;28058;46.344;17.786;2023-08-08T03:45:11;63262.38;;;-144.97;100.00
42415;BME280;28058;46.344;17.786;2023-08-08T03:47:38;63262.38;;;-144.97;100.00
42415;BME280;28058;46.344;17.786;2023-08-08T03:50:06;63262.38;;;-144.97;100.00
42415;BME280;28058;46.344;17.786;2023-08-08T03:52:33;63262.38;;;-144.97;100.00
42415;BME280;28058;46.344;17.786;2023-08-08T03:55:02;63262.38;;;-144.97;100.00
42415;BME280;28058;46.344;17.786;2023-08-08T03:57:30;63262.38;;;-144.97;100.00
42415;BME280;28058;46.344;17.786;2023-08-08T03:59:57;63262.38;;;-144.97;100.00
42415;BME280;28058;46.344;17.786;2023-08-08T04:02:24;63262.38;;;-144.97;100.00
42415;BME280;28058;46.344;17.786;2023-08-08T04:04:51;63262.38;;;-144.97;100.00
42415;BME280;28058;46.344;17.786;2023-08-08T04:07:18;63262.38;;;-144.97;100.00
42415;BME280;28058;46.344;17.786;2023-08-08T04:09:45;63262.38;;;-144.97;100.00
42415;BME280;28058;46.344;17.786;2023-08-08T04:12:11;63262.38;;;-144.97;100.00
42415;BME280;28058;46.344;17.786;2023-08-08T04:14:38;63262.38;;;-144.97;100.00
42415;BME280;28058;46.344;17.786;2023-08-08T04:17:05;63262.38;;;-144.97;100.00
42415;BME280;28058;46.344;17.786;2023-08-08T04:19:32;63262.38;;;-144.97;100.00
42415;BME280;28058;46.344;17.786;2023-08-08T04:21:59;63262.38;;;-144.97;100.00
42415;BME280;28058;46.344;17.786;2023-08-08T04:24:26;63262.38;;;-144.97;100.00
42415;BME280;28058;46.344;17.786;2023-08-08T04:26:53;63262.38;;;-144.97;100.00
42415;BME280;28058;46.344;17.786;2023-08-08T04:29:20;63262.38;;;-144.97;100.00
42415;BME280;28058;46.344;17.786;2023-08-08T04:31:47;63262.38;;;-144.97;100.00
42415;BME280;28058;46.344;17.786;2023-08-08T04:34:13;63262.38;;;-144.97;100.00
42415;BME280;28058;46.344;17.786;2023-08-08T04:36:40;63262.38;;;-144.97;100.00
42415;BME280;28058;46.344;17.786;2023-08-08T04:39:07;63262.38;;;-144.97;100.00
42415;BME280;28058;46.344;17.786;2023-08-08T04:41:33;63262.38;;;-144.97;100.00
42415;BME280;28058;46.344;17.786;2023-08-08T04:44:00;63262.38;;;-144.97;100.00
42415;BME280;28058;46.344;17.786;2023-08-08T04:46:27;63262.38;;;-144.97;100.00
42415;BME280;28058;46.344;17.786;2023-08-08T04:48:54;63262.38;;;-144.97;100.00
42415;BME280;28058;46.344;17.786;2023-08-08T04:51:22;63262.38;;;-144.97;100.00
42415;BME280;28058;46.344;17.786;2023-08-08T04:53:49;63262.38;;;-144.97;100.00
42415;BME280;28058;46.344;17.786;2023-08-08T04:56:16;63262.38;;;-144.97;100.00
42415;BME280;28058;46.344;17.786;2023-08-08T04:58:43;63262.38;;;-144.97;100.00
42415;BME280;28058;46.344;17.786;2023-08-08T05:01:10;63262.38;;;-144.97;100.00
42415;BME280;28058;46.344;17.786;2023-08-08T05:03:41;63262.38;;;-144.97;100.00
42415;BME280;28058;46.344;17.786;2023-08-08T05:06:08;63262.38;;;-144.97;100.00
42415;BME280;28058;46.344;17.786;2023-08-08T05:08:35;63262.38;;;-144.97;100.00
42415;BME280;28058;46.344;17.786;2023-08-08T05:11:01;63262.38;;;-144.97;100.00
42415;BME280;28058;46.344;17.786;2023-08-08T05:13:28;63262.38;;;-144.97;100.00
42415;BME280;28058;46.344;17.786;2023-08-08T05:15:55;63262.38;;;-144.97;100.00
42415;BME280;28058;46.344;17.786;2023-08-08T05:18:22;63262.38;;;-144.97;100.00
42415;BME280;28058;46.344;17.786;2023-08-08T05:20:50;63262.38;;;-144.97;100.00
42415;BME280;28058;46.344;17.786;2023-08-08T05:23:17;63262.38;;;-144.97;100.00
42415;BME280;28058;46.344;17.786;2023-08-08T05:25:44;63262.38;;;-144.97;100.00
42415;BME280;28058;46.344;17.786;2023-08-08T05:28:11;63262.38;;;-144.97;100.00
42415;BME280;28058;46.344;17.786;2023-08-08T05:30:37;63262.38;;;-144.97;100.00
42415;BME280;28058;46.344;17.786;2023-08-08T05:33:04;63262.38;;;-144.97;100.00
42415;BME280;28058;46.344;17.786;2023-08-08T05:35:31;63262.38;;;-144.97;100.00
42415;BME280;28058;46.344;17.786;2023-08-08T05:37:58;63262.38;;;-144.97;100.00
42415;BME280;28058;46.344;17.786;2023-08-08T05:40:25;63262.38;;;-144.97;100.00
42415;BME280;28058;46.344;17.786;2023-08-08T05:42:52;63262.38;;;-144.97;100.00
42415;BME280;28058;46.344;17.786;2023-08-08T05:45:19;63262.38;;;-144.97;100.00
42415;BME280;28058;46.344;17.786;2023-08-08T05:47:45;63262.38;;;-144.97;100.00
42415;BME280;28058;46.344;17.786;2023-08-08T05:50:12;63262.38;;;-144.97;100.00
42415;BME280;28058;46.344;17.786;2023-08-08T05:52:39;63262.38;;;-144.97;100.00
42415;BME280;28058;46.344;17.786;2023-08-08T05:55:06;63262.38;;;-144.97;100.00
42415;BME280;28058;46.344;17.786;2023-08-08T05:57:33;63262.38;;;-144.97;100.00
42415;BME280;28058;46.344;17.786;2023-08-08T06:00:00;63262.38;;;-144.97;100.00
42415;BME280;28058;46.344;17.786;2023-08-08T06:02:29;63262.38;;;-144.97;100.00
42415;BME280;28058;46.344;17.786;2023-08-08T06:04:56;63262.38;;;-144.97;100.00
42415;BME280;28058;46.344;17.786;2023-08-08T06:07:23;63262.38;;;-144.97;100.00
42415;BME280;28058;46.344;17.786;2023-08-08T06:09:49;63262.38;;;-144.97;100.00
42415;BME280;28058;46.344;17.786;2023-08-08T06:12:16;63262.38;;;-144.97;100.00
42415;BME280;28058;46.344;17.786;2023-08-08T06:14:43;63262.38;;;-144.97;100.00
42415;BME280;28058;46.344;17.786;2023-08-08T06:17:10;63262.38;;;-144.97;100.00
42415;BME280;28058;46.344;17.786;2023-08-08T06:19:37;63262.38;;;-144.97;100.00
42415;BME280;28058;46.344;17.786;2023-08-08T06:22:03;63262.38;;;-144.97;100.00
42415;BME280;28058;46.344;17.786;2023-08-08T06:24:30;63262.38;;;-144.97;100.00
42415;BME280;28058;46.344;17.786;2023-08-08T06:26:58;63262.38;;;-144.97;100.00
42415;BME280;28058;46.344;17.786;2023-08-08T06:29:25;63262.38;;;-144.97;100.00
42415;BME280;28058;46.344;17.786;2023-08-08T06:31:52;63262.38;;;-144.97;100.00
42415;BME280;28058;46.344;17.786;2023-08-08T06:34:19;63262.38;;;-144.97;100.00
42415;BME280;28058;46.344;17.786;2023-08-08T06:36:46;63262.38;;;-144.97;100.00
42415;BME280;28058;46.344;17.786;2023-08-08T06:39:13;63262.38;;;-144.97;100.00
42415;BME280;28058;46.344;17.786;2023-08-08T06:41:40;63262.38;;;-144.97;100.00
42415;BME280;28058;46.344;17.786;2023-08-08T06:44:07;63262.38;;;-144.97;100.00
42415;BME280;28058;46.344;17.786;2023-08-08T06:46:35;63262.38;;;-144.97;100.00
42415;BME280;28058;46.344;17.786;2023-08-08T06:49:02;63262.38;;;-144.97;100.00
42415;BME280;28058;46.344;17.786;2023-08-08T06:51:29;63262.38;;;-144.97;100.00
42415;BME280;28058;46.344;17.786;2023-08-08T06:53:56;63262.38;;;-144.97;100.00
42415;BME280;28058;46.344;17.786;2023-08-08T06:56:23;63262.38;;;-144.97;100.00
42415;BME280;28058;46.344;17.786;2023-08-08T06:58:50;63262.38;;;-144.97;100.00
42415;BME280;28058;46.344;17.786;2023-08-08T07:01:17;63262.38;;;-144.97;100.00
42415;BME280;28058;46.344;17.786;2023-08-08T07:03:45;63262.38;;;-144.97;100.00
42415;BME280;28058;46.344;17.786;2023-08-08T07:06:15;63262.38;;;-144.97;100.00
42415;BME280;28058;46.344;17.786;2023-08-08T07:08:42;63262.38;;;-144.97;100.00
42415;BME280;28058;46.344;17.786;2023-08-08T07:11:09;63262.38;;;-144.97;100.00
42415;BME280;28058;46.344;17.786;2023-08-08T07:13:36;63262.38;;;-144.97;100.00
42415;BME280;28058;46.344;17.786;2023-08-08T07:16:04;63262.38;;;-144.97;100.00
42415;BME280;28058;46.344;17.786;2023-08-08T07:18:31;63262.38;;;-144.97;100.00
42415;BME280;28058;46.344;17.786;2023-08-08T07:20:58;63262.38;;;-144.97;100.00
42415;BME280;28058;46.344;17.786;2023-08-08T07:23:25;63262.38;;;-144.97;100.00
42415;BME280;28058;46.344;17.786;2023-08-08T07:25:52;63262.38;;;-144.97;100.00
42415;BME280;28058;46.344;17.786;2023-08-08T07:28:19;63262.38;;;-144.97;100.00
42415;BME280;28058;46.344;17.786;2023-08-08T07:30:46;63262.38;;;-144.97;100.00
42415;BME280;28058;46.344;17.786;2023-08-08T07:33:13;63262.38;;;-144.97;100.00
42415;BME280;28058;46.344;17.786;2023-08-08T07:35:40;63262.38;;;-144.97;100.00
42415;BME280;28058;46.344;17.786;2023-08-08T07:38:07;63262.38;;;-144.97;100.00
42415;BME280;28058;46.344;17.786;2023-08-08T07:40:35;63262.38;;;-144.97;100.00
42415;BME280;28058;46.344;17.786;2023-08-08T07:43:02;63262.38;;;-144.97;100.00
42415;BME280;28058;46.344;17.786;2023-08-08T07:45:29;63262.38;;;-144.97;100.00
42415;BME280;28058;46.344;17.786;2023-08-08T07:47:56;63262.38;;;-144.97;100.00
42415;BME280;28058;46.344;17.786;2023-08-08T07:50:24;63262.38;;;-144.97;100.00
42415;BME280;28058;46.344;17.786;2023-08-08T07:52:51;63262.38;;;-144.97;100.00
42415;BME280;28058;46.344;17.786;2023-08-08T07:55:18;63262.38;;;-144.97;100.00
42415;BME280;28058;46.344;17.786;2023-08-08T07:57:45;63262.38;;;-144.97;100.00
42415;BME280;28058;46.344;17.786;2023-08-08T08:00:12;63262.38;;;-144.97;100.00
42415;BME280;28058;46.344;17.786;2023-08-08T08:02:42;63262.38;;;-144.97;100.00
42415;BME280;28058;46.344;17.786;2023-08-08T08:05:10;63262.38;;;-144.97;100.00
42415;BME280;28058;46.344;17.786;2023-08-08T08:07:38;63262.38;;;-144.97;100.00
42415;BME280;28058;46.344;17.786;2023-08-08T08:10:07;63262.38;;;-144.97;100.00
42415;BME280;28058;46.344;17.786;2023-08-08T08:12:36;63262.38;;;-144.97;100.00
42415;BME280;28058;46.344;17.786;2023-08-08T08:15:03;63262.38;;;-144.97;100.00
42415;BME280;28058;46.344;17.786;2023-08-08T08:17:31;63262.38;;;-144.97;100.00
42415;BME280;28058;46.344;17.786;2023-08-08T08:19:58;63262.38;;;-144.97;100.00
42415;BME280;28058;46.344;17.786;2023-08-08T08:22:25;63262.38;;;-144.97;100.00
42415;BME280;28058;46.344;17.786;2023-08-08T08:24:52;63262.38;;;-144.97;100.00
42415;BME280;28058;46.344;17.786;2023-08-08T08:27:18;63262.38;;;-144.97;100.00
42415;BME280;28058;46.344;17.786;2023-08-08T08:29:45;63262.38;;;-144.97;100.00
42415;BME280;28058;46.344;17.786;2023-08-08T08:32:12;63262.38;;;-144.97;100.00
42415;BME280;28058;46.344;17.786;2023-08-08T08:34:39;63262.38;;;-144.97;100.00
42415;BME280;28058;46.344;17.786;2023-08-08T08:37:06;63262.38;;;-144.97;100.00
42415;BME280;28058;46.344;17.786;2023-08-08T08:39:33;63262.38;;;-144.97;100.00
42415;BME280;28058;46.344;17.786;2023-08-08T08:42:00;63262.38;;;-144.97;100.00
42415;BME280;28058;46.344;17.786;2023-08-08T08:44:32;63262.38;;;-144.97;100.00
42415;BME280;28058;46.344;17.786;2023-08-08T08:47:02;63262.38;;;-144.97;100.00
42415;BME280;28058;46.344;17.786;2023-08-08T08:49:29;63262.38;;;-144.97;100.00
42415;BME280;28058;46.344;17.786;2023-08-08T08:51:57;63262.38;;;-144.97;100.00
42415;BME280;28058;46.344;17.786;2023-08-08T08:54:28;63262.38;;;-144.97;100.00
42415;BME280;28058;46.344;17.786;2023-08-08T08:56:56;63262.38;;;-144.97;100.00
42415;BME280;28058;46.344;17.786;2023-08-08T08:59:24;63262.38;;;-144.97;100.00
42415;BME280;28058;46.344;17.786;2023-08-08T09:01:51;63262.38;;;-144.97;100.00
42415;BME280;28058;46.344;17.786;2023-08-08T09:04:19;63262.38;;;-144.97;100.00
42415;BME280;28058;46.344;17.786;2023-08-08T09:06:47;63262.38;;;-144.97;100.00
42415;BME280;28058;46.344;17.786;2023-08-08T09:09:14;63262.38;;;-144.97;100.00
42415;BME280;28058;46.344;17.786;2023-08-08T09:11:44;63262.38;;;-144.97;100.00
42415;BME280;28058;46.344;17.786;2023-08-08T09:14:18;63262.38;;;-144.97;100.00
42415;BME280;28058;46.344;17.786;2023-08-08T09:16:46;63262.38;;;-144.97;100.00
42415;BME280;28058;46.344;17.786;2023-08-08T09:19:13;63262.38;;;-144.97;100.00
42415;BME280;28058;46.344;17.786;2023-08-08T11:01:08;118336.50;;;-144.97;32.58
42415;BME280;28058;46.344;17.786;2023-08-08T11:03:40;118336.50;;;-144.97;34.58
42415;BME280;28058;46.344;17.786;2023-08-08T11:06:09;118336.50;;;-144.97;34.42
42415;BME280;28058;46.344;17.786;2023-08-08T11:08:37;118336.50;;;-144.97;32.89
42415;BME280;28058;46.344;17.786;2023-08-08T11:11:05;118336.50;;;-144.97;35.87
42415;BME280;28058;46.344;17.786;2023-08-08T11:13:33;118336.50;;;-144.97;35.43
42415;BME280;28058;46.344;17.786;2023-08-08T11:16:00;118336.50;;;-144.97;35.07
42415;BME280;28058;46.344;17.786;2023-08-08T11:18:30;118336.50;;;-144.97;33.62
42415;BME280;28058;46.344;17.786;2023-08-08T11:20:57;118336.50;;;-144.97;34.49
42415;BME280;28058;46.344;17.786;2023-08-08T11:23:46;118336.50;;;-144.97;34.78
42415;BME280;28058;46.344;17.786;2023-08-08T11:26:12;118336.50;;;-144.97;37.34
42415;BME280;28058;46.344;17.786;2023-08-08T11:28:51;118336.50;;;-144.97;38.32
42415;BME280;28058;46.344;17.786;2023-08-08T11:31:20;118336.50;;;-144.97;36.38
42415;BME280;28058;46.344;17.786;2023-08-08T11:33:48;118336.50;;;-144.97;36.04
42415;BME280;28058;46.344;17.786;2023-08-08T11:36:15;118336.50;;;-144.97;36.21
42415;BME280;28058;46.344;17.786;2023-08-08T11:38:43;118336.50;;;-144.97;35.96
42415;BME280;28058;46.344;17.786;2023-08-08T11:41:11;118336.50;;;-144.97;35.67
42415;BME280;28058;46.344;17.786;2023-08-08T11:43:40;118336.50;;;-144.97;34.63
42415;BME280;28058;46.344;17.786;2023-08-08T11:46:09;118336.50;;;-144.97;35.17
42415;BME280;28058;46.344;17.786;2023-08-08T11:48:37;118336.50;;;-144.97;34.77
42415;BME280;28058;46.344;17.786;2023-08-08T11:51:05;118336.50;;;-144.97;36.78
42415;BME280;28058;46.344;17.786;2023-08-08T11:53:35;118336.50;;;-144.97;36.33
42415;BME280;28058;46.344;17.786;2023-08-08T11:56:05;118336.50;;;-144.97;36.34
42415;BME280;28058;46.344;17.786;2023-08-08T11:58:36;118336.50;;;-144.97;36.26
42415;BME280;28058;46.344;17.786;2023-08-08T12:01:06;118336.50;;;-144.97;37.20
42415;BME280;28058;46.344;17.786;2023-08-08T12:03:35;118336.50;;;-144.97;36.44
42415;BME280;28058;46.344;17.786;2023-08-08T12:06:14;118336.50;;;-144.97;36.73
42415;BME280;28058;46.344;17.786;2023-08-08T12:08:46;118336.50;;;-144.97;35.17
42415;BME280;28058;46.344;17.786;2023-08-08T12:11:14;118336.50;;;-144.97;34.77
42415;BME280;28058;46.344;17.786;2023-08-08T12:13:43;118336.50;;;-144.97;34.30
42415;BME280;28058;46.344;17.786;2023-08-08T12:16:12;118336.50;;;-144.97;34.90
42415;BME280;28058;46.344;17.786;2023-08-08T12:18:44;118336.50;;;-144.97;35.47
42415;BME280;28058;46.344;17.786;2023-08-08T12:21:11;118336.50;;;-144.97;34.15
42415;BME280;28058;46.344;17.786;2023-08-08T12:23:38;118336.50;;;-144.97;33.42
42415;BME280;28058;46.344;17.786;2023-08-08T12:26:07;118336.50;;;-144.97;36.05
42415;BME280;28058;46.344;17.786;2023-08-08T12:28:34;118336.50;;;-144.97;36.68
42415;BME280;28058;46.344;17.786;2023-08-08T12:31:01;118336.50;;;-144.97;33.72
42415;BME280;28058;46.344;17.786;2023-08-08T12:33:28;118336.50;;;-144.97;36.03
42415;BME280;28058;46.344;17.786;2023-08-08T12:35:55;118336.50;;;-144.97;35.63
42415;BME280;28058;46.344;17.786;2023-08-08T12:38:22;118336.50;;;-144.97;34.25
42415;BME280;28058;46.344;17.786;2023-08-08T12:40:52;118336.50;;;-144.97;34.89
42415;BME280;28058;46.344;17.786;2023-08-08T12:43:19;118336.50;;;-144.97;34.73
42415;BME280;28058;46.344;17.786;2023-08-08T12:45:46;118336.50;;;-144.97;36.05
42415;BME280;28058;46.344;17.786;2023-08-08T12:48:14;118336.50;;;-144.97;36.69
42415;BME280;28058;46.344;17.786;2023-08-08T12:50:41;118336.50;;;-144.97;36.65
42415;BME280;28058;46.344;17.786;2023-08-08T12:53:08;118336.50;;;-144.97;37.10
42415;BME280;28058;46.344;17.786;2023-08-08T12:55:35;118336.50;;;-144.97;36.32
42415;BME280;28058;46.344;17.786;2023-08-08T12:58:04;118336.50;;;-144.97;36.85
42415;BME280;28058;46.344;17.786;2023-08-08T13:00:31;118336.50;;;-144.97;36.34
42415;BME280;28058;46.344;17.786;2023-08-08T13:02:58;118336.50;;;-144.97;36.33
42415;BME280;28058;46.344;17.786;2023-08-08T13:05:28;118336.50;;;-144.97;35.70
42415;BME280;28058;46.344;17.786;2023-08-08T13:07:55;118336.50;;;-144.97;35.97
42415;BME280;28058;46.344;17.786;2023-08-08T13:10:22;118336.50;;;-144.97;37.06
42415;BME280;28058;46.344;17.786;2023-08-08T13:12:49;118336.50;;;-144.97;34.88
42415;BME280;28058;46.344;17.786;2023-08-08T13:15:17;118336.50;;;-144.97;35.68
42415;BME280;28058;46.344;17.786;2023-08-08T13:17:44;118336.50;;;-144.97;33.30
42415;BME280;28058;46.344;17.786;2023-08-08T13:20:11;118336.50;;;-144.97;35.45
42415;BME280;28058;46.344;17.786;2023-08-08T13:22:39;118336.50;;;-144.97;36.93
42415;BME280;28058;46.344;17.786;2023-08-08T13:25:06;118336.50;;;-144.97;35.78
42415;BME280;28058;46.344;17.786;2023-08-08T13:27:33;118336.50;;;-144.97;35.81
42415;BME280;28058;46.344;17.786;2023-08-08T13:30:00;118336.50;;;-144.97;35.35
42415;BME280;28058;46.344;17.786;2023-08-08T13:32:27;118336.50;;;-144.97;36.06
42415;BME280;28058;46.344;17.786;2023-08-08T13:34:55;118336.50;;;-144.97;35.31
42415;BME280;28058;46.344;17.786;2023-08-08T13:37:22;118336.50;;;-144.97;36.21
42415;BME280;28058;46.344;17.786;2023-08-08T13:39:49;118336.50;;;-144.97;38.75
42415;BME280;28058;46.344;17.786;2023-08-08T13:42:16;118336.50;;;-144.97;35.52
42415;BME280;28058;46.344;17.786;2023-08-08T13:44:43;118336.50;;;-144.97;36.54
42415;BME280;28058;46.344;17.786;2023-08-08T13:47:10;118336.50;;;-144.97;35.59
42415;BME280;28058;46.344;17.786;2023-08-08T13:49:37;118336.50;;;-144.97;35.11
42415;BME280;28058;46.344;17.786;2023-08-08T13:52:04;118336.50;;;-144.97;35.07
42415;BME280;28058;46.344;17.786;2023-08-08T13:54:31;118336.50;;;-144.97;35.22
42415;BME280;28058;46.344;17.786;2023-08-08T13:56:58;118336.50;;;-144.97;36.84
42415;BME280;28058;46.344;17.786;2023-08-08T13:59:25;118336.50;;;-144.97;37.70
42415;BME280;28058;46.344;17.786;2023-08-08T14:01:53;118336.50;;;-144.97;36.90
42415;BME280;28058;46.344;17.786;2023-08-08T14:04:20;118336.50;;;-144.97;35.41
42415;BME280;28058;46.344;17.786;2023-08-08T14:06:47;118336.50;;;-144.97;35.64
42415;BME280;28058;46.344;17.786;2023-08-08T14:09:14;118336.50;;;-144.97;36.27
42415;BME280;28058;46.344;17.786;2023-08-08T14:11:45;118336.50;;;-144.97;35.95
42415;BME280;28058;46.344;17.786;2023-08-08T14:14:12;118336.50;;;-144.97;36.93